createdAt,value
2022-09-17T00:00:20.055Z,15.54
2022-09-17T00:01:20.142Z,15.34
2022-09-17T00:02:20.052Z,15.46
2022-09-17T00:03:20.127Z,15.36
2022-09-17T00:04:20.173Z,15.31
2022-09-17T00:05:20.051Z,15.32
2022-09-17T00:06:20.045Z,15.28
2022-09-17T00:07:20.045Z,15.38
2022-09-17T00:08:20.048Z,15.46
2022-09-17T00:09:20.048Z,15.53
2022-09-17T00:10:20.044Z,15.43
2022-09-17T00:11:20.048Z,15.41
2022-09-17T00:12:20.043Z,15.38
2022-09-17T00:13:20.048Z,15.43
2022-09-17T00:14:20.041Z,15.39
2022-09-17T00:15:20.048Z,15.35
2022-09-17T00:16:20.153Z,15.36
2022-09-17T00:17:20.037Z,15.38
2022-09-17T00:18:20.040Z,15.44
2022-09-17T00:19:20.041Z,15.41
2022-09-17T00:20:20.155Z,15.49
2022-09-17T00:21:20.043Z,15.32
2022-09-17T00:22:20.038Z,15.31
2022-09-17T00:23:20.038Z,15.51
2022-09-17T00:24:20.036Z,15.50
2022-09-17T00:25:20.033Z,15.50
2022-09-17T00:26:20.038Z,15.51
2022-09-17T00:27:20.033Z,15.57
2022-09-17T00:28:20.032Z,15.47
2022-09-17T00:29:20.036Z,15.50
2022-09-17T00:30:20.033Z,15.41
2022-09-17T00:31:20.118Z,15.49
2022-09-17T00:32:20.029Z,15.43
2022-09-17T00:33:20.035Z,15.41
2022-09-17T00:34:20.032Z,15.41
2022-09-17T00:35:20.026Z,15.57
2022-09-17T00:36:20.145Z,15.53
2022-09-17T00:37:20.026Z,15.54
2022-09-17T00:38:20.029Z,15.60
2022-09-17T00:39:20.029Z,15.57
2022-09-17T00:40:20.130Z,15.67
2022-09-17T00:41:20.025Z,15.50
2022-09-17T00:42:20.027Z,15.57
2022-09-17T00:43:20.026Z,15.60
2022-09-17T00:44:20.026Z,15.54
2022-09-17T00:45:20.024Z,15.62
2022-09-17T00:46:20.089Z,15.59
2022-09-17T00:47:20.032Z,15.50
2022-09-17T00:48:20.023Z,15.59
2022-09-17T00:49:20.021Z,15.59
2022-09-17T00:50:20.021Z,15.62
2022-09-17T00:51:20.036Z,15.68
2022-09-17T00:52:20.137Z,15.64
2022-09-17T00:53:20.025Z,15.69
2022-09-17T00:54:20.028Z,15.69
2022-09-17T00:55:20.023Z,15.60
2022-09-17T00:56:20.018Z,15.64
2022-09-17T00:57:20.014Z,15.67
2022-09-17T00:58:20.019Z,15.67
2022-09-17T00:59:20.019Z,15.65
2022-09-17T01:00:20.015Z,15.71
2022-09-17T01:01:20.073Z,15.68
2022-09-17T01:02:20.068Z,15.68
2022-09-17T01:03:20.016Z,15.71
2022-09-17T01:04:20.017Z,15.75
2022-09-17T01:05:20.014Z,15.80
2022-09-17T01:06:20.011Z,15.74
2022-09-17T01:07:20.013Z,15.57
2022-09-17T01:08:20.163Z,15.60
2022-09-17T01:09:20.007Z,15.51
2022-09-17T01:10:20.012Z,15.56
2022-09-17T01:11:20.012Z,15.64
2022-09-17T01:12:20.008Z,15.64
2022-09-17T01:13:20.011Z,15.65
2022-09-17T01:14:20.015Z,15.75
2022-09-17T01:15:20.005Z,15.72
2022-09-17T01:16:20.087Z,15.82
2022-09-17T01:17:20.004Z,15.86
2022-09-17T01:18:20.007Z,15.89
2022-09-17T01:19:20.009Z,15.92
2022-09-17T01:20:20.009Z,15.93
2022-09-17T01:21:20.009Z,15.90
2022-09-17T01:22:20.008Z,15.82
2022-09-17T01:23:20.003Z,15.93
2022-09-17T01:24:20.116Z,15.94
2022-09-17T01:25:20.007Z,15.82
2022-09-17T01:26:20.006Z,15.87
2022-09-17T01:27:20.002Z,15.93
2022-09-17T01:28:20.005Z,15.94
2022-09-17T01:29:20.002Z,15.84
2022-09-17T01:30:20.000Z,15.87
2022-09-17T01:31:20.051Z,15.96
2022-09-17T01:32:19.999Z,15.90
2022-09-17T01:33:20.000Z,15.93
2022-09-17T01:34:19.998Z,15.86
2022-09-17T01:35:20.006Z,15.87
2022-09-17T01:36:19.999Z,15.92
2022-09-17T01:37:19.995Z,15.86
2022-09-17T01:38:19.996Z,15.90
2022-09-17T01:39:19.995Z,15.84
2022-09-17T01:40:20.228Z,15.84
2022-09-17T01:41:19.997Z,15.75
2022-09-17T01:42:19.994Z,15.92
2022-09-17T01:43:19.992Z,15.87
2022-09-17T01:44:19.992Z,15.83
2022-09-17T01:45:19.991Z,15.75
2022-09-17T01:46:20.045Z,15.86
2022-09-17T01:47:21.140Z,15.90
2022-09-17T01:48:19.994Z,15.94
2022-09-17T01:49:20.004Z,15.94
2022-09-17T01:50:19.997Z,15.94
2022-09-17T01:51:19.990Z,15.87
2022-09-17T01:52:19.991Z,15.83
2022-09-17T01:53:19.988Z,16.01
2022-09-17T01:54:19.984Z,15.90
2022-09-17T01:55:19.991Z,15.96
2022-09-17T01:56:20.116Z,15.89
2022-09-17T01:57:19.987Z,15.84
2022-09-17T01:58:19.984Z,15.84
2022-09-17T01:59:19.981Z,15.74
2022-09-17T02:00:19.987Z,15.87
2022-09-17T02:01:20.050Z,15.89
2022-09-17T02:02:20.033Z,15.90
2022-09-17T02:03:19.984Z,15.76
2022-09-17T02:04:19.985Z,15.84
2022-09-17T02:05:19.982Z,15.92
2022-09-17T02:06:19.983Z,15.93
2022-09-17T02:07:19.980Z,15.93
2022-09-17T02:08:19.981Z,15.87
2022-09-17T02:09:19.979Z,15.92
2022-09-17T02:10:19.979Z,16.02
2022-09-17T02:11:19.986Z,15.97
2022-09-17T02:12:20.096Z,16.01
2022-09-17T02:13:19.974Z,16.02
2022-09-17T02:14:19.974Z,15.93
2022-09-17T02:15:19.973Z,15.84
2022-09-17T02:16:20.000Z,15.86
2022-09-17T02:17:19.980Z,16.01
2022-09-17T02:18:19.978Z,16.00
2022-09-17T02:19:19.973Z,16.00
2022-09-17T02:20:22.947Z,15.92
2022-09-17T02:21:19.971Z,16.00
2022-09-17T02:22:19.973Z,15.92
2022-09-17T02:23:19.972Z,15.96
2022-09-17T02:24:19.969Z,15.97
2022-09-17T02:25:19.974Z,15.97
2022-09-17T02:26:19.976Z,15.92
2022-09-17T02:27:19.973Z,15.90
2022-09-17T02:28:20.093Z,16.04
2022-09-17T02:29:19.969Z,16.05
2022-09-17T02:30:19.968Z,16.04
2022-09-17T02:31:20.063Z,16.07
2022-09-17T02:32:19.969Z,15.93
2022-09-17T02:33:19.966Z,15.94
2022-09-17T02:34:19.969Z,15.90
2022-09-17T02:35:19.968Z,15.94
2022-09-17T02:36:19.969Z,15.92
2022-09-17T02:37:19.964Z,15.93
2022-09-17T02:38:19.968Z,15.92
2022-09-17T02:39:19.963Z,15.87
2022-09-17T02:40:20.036Z,15.92
2022-09-17T02:41:19.966Z,15.94
2022-09-17T02:42:19.968Z,15.96
2022-09-17T02:43:19.967Z,15.92
2022-09-17T02:44:20.083Z,16.02
2022-09-17T02:45:19.960Z,15.89
2022-09-17T02:46:20.058Z,15.89
2022-09-17T02:47:19.961Z,15.90
2022-09-17T02:48:19.961Z,15.97
2022-09-17T02:49:19.955Z,15.87
2022-09-17T02:50:19.956Z,15.86
2022-09-17T02:51:19.956Z,15.94
2022-09-17T02:52:19.957Z,15.97
2022-09-17T02:53:19.958Z,16.00
2022-09-17T02:54:19.960Z,15.94
2022-09-17T02:55:19.958Z,15.93
2022-09-17T02:56:19.958Z,15.89
2022-09-17T02:57:19.953Z,15.94
2022-09-17T02:58:19.953Z,15.97
2022-09-17T02:59:19.955Z,16.01
2022-09-17T03:00:20.081Z,16.05
2022-09-17T03:01:20.089Z,15.94
2022-09-17T03:02:19.979Z,15.97
2022-09-17T03:03:19.953Z,16.02
2022-09-17T03:04:19.952Z,16.07
2022-09-17T03:05:19.953Z,16.01
2022-09-17T03:06:19.957Z,16.04
2022-09-17T03:07:19.951Z,16.04
2022-09-17T03:08:19.952Z,15.89
2022-09-17T03:09:19.950Z,15.92
2022-09-17T03:10:19.959Z,15.90
2022-09-17T03:11:19.949Z,15.92
2022-09-17T03:12:19.947Z,16.02
2022-09-17T03:13:19.950Z,16.09
2022-09-17T03:14:19.948Z,16.05
2022-09-17T03:15:19.947Z,16.02
2022-09-17T03:16:20.135Z,16.08
2022-09-17T03:17:19.945Z,15.96
2022-09-17T03:18:19.955Z,15.92
2022-09-17T03:19:19.943Z,16.14
2022-09-17T03:20:19.945Z,16.08
2022-09-17T03:21:19.944Z,16.12
2022-09-17T03:22:19.945Z,16.15
2022-09-17T03:23:19.944Z,16.23
2022-09-17T03:24:19.944Z,16.11
2022-09-17T03:25:19.942Z,16.12
2022-09-17T03:26:19.943Z,16.05
2022-09-17T03:27:19.946Z,16.07
2022-09-17T03:28:19.943Z,16.27
2022-09-17T03:29:19.942Z,16.24
2022-09-17T03:30:19.940Z,16.11
2022-09-17T03:31:20.028Z,16.08
2022-09-17T03:32:20.056Z,16.07
2022-09-17T03:33:19.939Z,15.96
2022-09-17T03:34:19.939Z,16.01
2022-09-17T03:35:19.939Z,16.08
2022-09-17T03:36:19.943Z,16.02
2022-09-17T03:37:19.941Z,16.08
2022-09-17T03:38:19.947Z,16.14
2022-09-17T03:39:19.938Z,16.11
2022-09-17T03:40:20.091Z,15.90
2022-09-17T03:41:19.937Z,15.96
2022-09-17T03:42:19.938Z,16.02
2022-09-17T03:43:19.933Z,16.04
2022-09-17T03:44:19.936Z,15.94
2022-09-17T03:45:19.934Z,15.96
2022-09-17T03:46:20.010Z,16.08
2022-09-17T03:47:19.934Z,16.21
2022-09-17T03:48:20.051Z,16.15
2022-09-17T03:49:19.934Z,16.11
2022-09-17T03:50:19.930Z,16.12
2022-09-17T03:51:19.933Z,16.21
2022-09-17T03:52:19.933Z,16.17
2022-09-17T03:53:19.929Z,16.11
2022-09-17T03:54:19.933Z,16.23
2022-09-17T03:55:19.928Z,16.12
2022-09-17T03:56:19.932Z,16.11
2022-09-17T03:57:19.931Z,16.12
2022-09-17T03:58:19.927Z,16.20
2022-09-17T03:59:19.930Z,16.31
2022-09-17T04:00:19.926Z,16.17
2022-09-17T04:01:19.973Z,16.12
2022-09-17T04:02:20.043Z,16.07
2022-09-17T04:03:19.929Z,16.09
2022-09-17T04:04:20.047Z,16.09
2022-09-17T04:05:19.925Z,16.15
2022-09-17T04:06:19.935Z,16.08
2022-09-17T04:07:19.930Z,16.09
2022-09-17T04:08:19.925Z,16.05
2022-09-17T04:09:19.926Z,16.12
2022-09-17T04:10:19.924Z,16.24
2022-09-17T04:11:19.921Z,16.28
2022-09-17T04:12:19.923Z,16.17
2022-09-17T04:13:19.929Z,16.11
2022-09-17T04:14:19.921Z,16.17
2022-09-17T04:15:19.919Z,16.14
2022-09-17T04:16:19.978Z,16.12
2022-09-17T04:17:19.921Z,16.09
2022-09-17T04:18:19.922Z,16.05
2022-09-17T04:19:19.920Z,16.12
2022-09-17T04:20:20.040Z,16.11
2022-09-17T04:21:19.919Z,16.08
2022-09-17T04:22:19.922Z,15.86
2022-09-17T04:23:19.920Z,15.87
2022-09-17T04:24:19.916Z,15.89
2022-09-17T04:25:19.915Z,16.05
2022-09-17T04:26:19.917Z,16.04
2022-09-17T04:27:19.922Z,16.08
2022-09-17T04:28:19.916Z,16.08
2022-09-17T04:29:19.915Z,15.97
2022-09-17T04:30:19.919Z,15.96
2022-09-17T04:31:19.996Z,15.97
2022-09-17T04:32:19.917Z,15.94
2022-09-17T04:33:19.910Z,15.97
2022-09-17T04:34:19.914Z,15.89
2022-09-17T04:35:19.917Z,15.97
2022-09-17T04:36:20.032Z,15.96
2022-09-17T04:37:19.915Z,15.96
2022-09-17T04:38:19.910Z,15.92
2022-09-17T04:39:19.909Z,16.00
2022-09-17T04:40:19.985Z,15.87
2022-09-17T04:41:19.909Z,15.86
2022-09-17T04:42:19.911Z,15.97
2022-09-17T04:43:19.921Z,15.87
2022-09-17T04:44:19.905Z,16.00
2022-09-17T04:45:19.909Z,15.92
2022-09-17T04:46:19.946Z,15.92
2022-09-17T04:47:19.910Z,16.00
2022-09-17T04:48:19.904Z,15.96
2022-09-17T04:49:19.908Z,15.89
2022-09-17T04:50:19.904Z,15.94
2022-09-17T04:51:19.904Z,16.05
2022-09-17T04:52:20.026Z,15.97
2022-09-17T04:53:19.907Z,15.94
2022-09-17T04:54:19.905Z,15.92
2022-09-17T04:55:19.908Z,15.92
2022-09-17T04:56:19.902Z,16.02
2022-09-17T04:57:19.913Z,15.96
2022-09-17T04:58:19.903Z,15.94
2022-09-17T04:59:19.901Z,15.94
2022-09-17T05:00:19.899Z,16.07
2022-09-17T05:01:19.927Z,16.04
2022-09-17T05:02:20.042Z,16.08
2022-09-17T05:03:19.900Z,16.09
2022-09-17T05:04:19.896Z,16.05
2022-09-17T05:05:19.899Z,16.04
2022-09-17T05:06:19.895Z,16.01
2022-09-17T05:07:19.897Z,16.08
2022-09-17T05:08:20.028Z,16.05
2022-09-17T05:09:19.900Z,16.08
2022-09-17T05:10:19.895Z,16.21
2022-09-17T05:11:19.901Z,16.12
2022-09-17T05:12:19.893Z,16.20
2022-09-17T05:13:19.891Z,16.28
2022-09-17T05:14:19.896Z,16.09
2022-09-17T05:15:19.899Z,16.09
2022-09-17T05:16:19.952Z,16.08
2022-09-17T05:17:19.894Z,16.07
2022-09-17T05:18:19.900Z,16.11
2022-09-17T05:19:19.890Z,16.12
2022-09-17T05:20:19.889Z,16.20
2022-09-17T05:21:19.893Z,16.28
2022-09-17T05:22:21.556Z,16.20
2022-09-17T05:23:19.890Z,16.11
2022-09-17T05:24:20.004Z,16.24
2022-09-17T05:25:19.884Z,16.20
2022-09-17T05:26:19.887Z,16.33
2022-09-17T05:27:19.887Z,16.24
2022-09-17T05:28:19.882Z,16.31
2022-09-17T05:29:19.884Z,16.23
2022-09-17T05:30:19.890Z,16.38
2022-09-17T05:31:19.946Z,16.35
2022-09-17T05:32:19.881Z,16.46
2022-09-17T05:33:19.880Z,16.49
2022-09-17T05:34:19.883Z,16.41
2022-09-17T05:35:19.885Z,16.23
2022-09-17T05:36:19.886Z,16.30
2022-09-17T05:37:19.880Z,16.41
2022-09-17T05:38:19.882Z,16.38
2022-09-17T05:39:19.879Z,16.28
2022-09-17T05:40:20.080Z,16.43
2022-09-17T05:41:19.884Z,16.35
2022-09-17T05:42:19.879Z,16.35
2022-09-17T05:43:19.879Z,16.48
2022-09-17T05:44:19.881Z,16.34
2022-09-17T05:45:19.875Z,16.30
2022-09-17T05:46:19.913Z,16.30
2022-09-17T05:47:19.878Z,16.33
2022-09-17T05:48:19.875Z,16.30
2022-09-17T05:49:19.878Z,16.43
2022-09-17T05:50:19.875Z,16.42
2022-09-17T05:51:19.878Z,16.39
2022-09-17T05:52:19.874Z,16.30
2022-09-17T05:53:19.891Z,16.21
2022-09-17T05:54:19.878Z,16.25
2022-09-17T05:55:19.873Z,16.24
2022-09-17T05:56:19.995Z,16.27
2022-09-17T05:57:19.871Z,16.20
2022-09-17T05:58:19.875Z,16.34
2022-09-17T05:59:19.869Z,16.43
2022-09-17T06:00:19.868Z,16.42
2022-09-17T06:01:19.868Z,16.43
2022-09-17T06:02:19.917Z,16.35
2022-09-17T06:03:19.988Z,16.48
2022-09-17T06:04:19.871Z,16.42
2022-09-17T06:05:19.870Z,16.38
2022-09-17T06:06:19.868Z,16.56
2022-09-17T06:07:19.868Z,16.56
2022-09-17T06:08:19.869Z,16.60
2022-09-17T06:09:19.867Z,16.64
2022-09-17T06:10:19.865Z,16.66
2022-09-17T06:11:19.868Z,16.58
2022-09-17T06:12:19.989Z,16.61
2022-09-17T06:13:19.872Z,16.63
2022-09-17T06:14:19.863Z,16.67
2022-09-17T06:15:19.866Z,16.56
2022-09-17T06:16:19.903Z,16.64
2022-09-17T06:17:22.172Z,16.78
2022-09-17T06:18:19.860Z,16.79
2022-09-17T06:19:19.866Z,16.76
2022-09-17T06:20:19.860Z,16.85
2022-09-17T06:21:19.868Z,16.61
2022-09-17T06:22:19.862Z,16.78
2022-09-17T06:23:19.865Z,16.68
2022-09-17T06:24:19.860Z,16.85
2022-09-17T06:25:19.861Z,16.64
2022-09-17T06:26:19.855Z,16.66
2022-09-17T06:27:19.860Z,16.66
2022-09-17T06:28:19.978Z,16.78
2022-09-17T06:29:19.857Z,16.89
2022-09-17T06:30:19.863Z,16.79
2022-09-17T06:31:19.944Z,16.85
2022-09-17T06:32:19.854Z,16.83
2022-09-17T06:33:19.863Z,17.04
2022-09-17T06:34:19.857Z,17.01
2022-09-17T06:35:20.410Z,17.14
2022-09-17T06:36:19.857Z,17.11
2022-09-17T06:37:19.857Z,17.07
2022-09-17T06:38:19.855Z,16.85
2022-09-17T06:39:19.860Z,16.81
2022-09-17T06:40:19.969Z,16.83
2022-09-17T06:41:19.860Z,16.89
2022-09-17T06:42:19.856Z,16.68
2022-09-17T06:43:19.858Z,16.82
2022-09-17T06:44:19.980Z,16.85
2022-09-17T06:45:19.855Z,16.89
2022-09-17T06:46:19.870Z,16.79
2022-09-17T06:47:19.853Z,16.79
2022-09-17T06:48:19.850Z,16.89
2022-09-17T06:49:19.856Z,16.98
2022-09-17T06:50:19.852Z,16.97
2022-09-17T06:51:19.850Z,16.97
2022-09-17T06:52:19.851Z,17.03
2022-09-17T06:53:19.849Z,17.07
2022-09-17T06:54:19.852Z,17.08
2022-09-17T06:55:19.851Z,17.00
2022-09-17T06:56:19.844Z,16.98
2022-09-17T06:57:19.846Z,17.08
2022-09-17T06:58:19.849Z,17.08
2022-09-17T06:59:19.852Z,17.16
2022-09-17T07:00:19.962Z,17.19
2022-09-17T07:01:19.927Z,17.11
2022-09-17T07:02:20.012Z,17.04
2022-09-17T07:03:23.137Z,17.01
2022-09-17T07:04:19.849Z,17.06
2022-09-17T07:05:19.845Z,17.04
2022-09-17T07:06:19.849Z,17.15
2022-09-17T07:07:19.847Z,17.23
2022-09-17T07:08:19.844Z,17.15
2022-09-17T07:09:19.851Z,17.22
2022-09-17T07:10:19.844Z,17.30
2022-09-17T07:11:19.848Z,17.11
2022-09-17T07:12:19.844Z,17.08
2022-09-17T07:13:19.844Z,17.30
2022-09-17T07:14:19.843Z,17.77
2022-09-17T07:15:19.842Z,17.90
2022-09-17T07:16:20.055Z,17.79
2022-09-17T07:17:19.846Z,17.84
2022-09-17T07:18:19.842Z,17.78
2022-09-17T07:19:19.850Z,17.62
2022-09-17T07:20:19.839Z,17.52
2022-09-17T07:21:19.847Z,17.37
2022-09-17T07:22:19.843Z,17.36
2022-09-17T07:23:19.846Z,17.30
2022-09-17T07:24:19.838Z,17.33
2022-09-17T07:25:19.841Z,17.38
2022-09-17T07:26:19.842Z,17.36
2022-09-17T07:27:19.838Z,17.33
2022-09-17T07:28:19.912Z,17.19
2022-09-17T07:29:19.840Z,17.28
2022-09-17T07:30:19.841Z,17.30
2022-09-17T07:31:19.895Z,17.19
2022-09-17T07:32:19.968Z,17.14
2022-09-17T07:33:19.837Z,17.22
2022-09-17T07:34:19.841Z,17.22
2022-09-17T07:35:19.839Z,17.11
2022-09-17T07:36:19.843Z,17.18
2022-09-17T07:37:19.840Z,17.37
2022-09-17T07:38:19.835Z,17.54
2022-09-17T07:39:19.839Z,17.62
2022-09-17T07:40:19.885Z,17.71
2022-09-17T07:41:19.840Z,17.58
2022-09-17T07:42:19.837Z,17.44
2022-09-17T07:43:19.839Z,17.43
2022-09-17T07:44:19.836Z,17.46
2022-09-17T07:45:19.842Z,17.43
2022-09-17T07:46:19.926Z,17.34
2022-09-17T07:47:19.840Z,17.18
2022-09-17T07:48:19.992Z,17.28
2022-09-17T07:49:19.836Z,17.38
2022-09-17T07:50:19.834Z,17.46
2022-09-17T07:51:19.834Z,17.46
2022-09-17T07:52:19.837Z,17.40
2022-09-17T07:53:19.836Z,17.41
2022-09-17T07:54:19.834Z,17.58
2022-09-17T07:55:19.839Z,17.74
2022-09-17T07:56:19.839Z,17.55
2022-09-17T07:57:19.839Z,17.52
2022-09-17T07:58:19.832Z,17.71
2022-09-17T07:59:19.834Z,17.78
2022-09-17T08:00:19.838Z,17.77
2022-09-17T08:01:19.867Z,17.70
2022-09-17T08:02:23.965Z,17.72
2022-09-17T08:03:19.830Z,17.55
2022-09-17T08:04:19.951Z,17.59
2022-09-17T08:05:19.836Z,17.82
2022-09-17T08:06:19.837Z,17.81
2022-09-17T08:07:19.830Z,17.84
2022-09-17T08:08:21.392Z,17.97
2022-09-17T08:09:19.834Z,17.81
2022-09-17T08:10:19.832Z,17.81
2022-09-17T08:11:38.297Z,17.86
2022-09-17T08:12:19.828Z,17.74
2022-09-17T08:13:19.838Z,17.77
2022-09-17T08:14:19.831Z,17.71
2022-09-17T08:15:19.832Z,17.81
2022-09-17T08:16:19.888Z,17.79
2022-09-17T08:17:19.831Z,17.82
2022-09-17T08:18:19.842Z,17.77
2022-09-17T08:19:19.831Z,17.72
2022-09-17T08:20:19.946Z,17.68
2022-09-17T08:21:19.831Z,17.72
2022-09-17T08:22:19.831Z,17.75
2022-09-17T08:23:19.829Z,17.77
2022-09-17T08:24:19.828Z,17.82
2022-09-17T08:25:19.832Z,17.79
2022-09-17T08:26:19.831Z,17.72
2022-09-17T08:27:19.833Z,17.79
2022-09-17T08:28:19.832Z,17.86
2022-09-17T08:29:19.828Z,17.92
2022-09-17T08:30:19.832Z,17.77
2022-09-17T08:31:19.857Z,17.99
2022-09-17T08:32:19.832Z,18.03
2022-09-17T08:33:19.828Z,18.05
2022-09-17T08:34:19.824Z,18.05
2022-09-17T08:35:19.835Z,18.05
2022-09-17T08:36:19.946Z,18.20
2022-09-17T08:37:19.830Z,18.12
2022-09-17T08:38:19.831Z,18.26
2022-09-17T08:39:19.832Z,18.36
2022-09-17T08:40:19.907Z,18.44
2022-09-17T08:41:19.827Z,18.47
2022-09-17T08:42:19.830Z,18.42
2022-09-17T08:43:19.828Z,18.44
2022-09-17T08:44:19.825Z,18.54
2022-09-17T08:45:19.826Z,18.48
2022-09-17T08:46:19.852Z,18.63
2022-09-17T08:47:19.833Z,19.06
2022-09-17T08:48:19.830Z,19.08
2022-09-17T08:49:19.835Z,19.19
2022-09-17T08:50:19.900Z,19.36
2022-09-17T08:51:19.824Z,19.44
2022-09-17T08:52:19.944Z,19.40
2022-09-17T08:53:19.827Z,19.73
2022-09-17T08:54:19.832Z,20.21
2022-09-17T08:55:19.832Z,20.55
2022-09-17T08:56:19.827Z,21.19
2022-09-17T08:57:19.830Z,20.97
2022-09-17T08:58:19.827Z,20.85
2022-09-17T08:59:21.753Z,21.22
2022-09-17T09:00:19.896Z,21.46
2022-09-17T09:01:19.905Z,21.54
2022-09-17T09:02:19.956Z,21.43
2022-09-17T09:03:19.836Z,21.25
2022-09-17T09:04:19.835Z,21.13
2022-09-17T09:05:19.831Z,20.85
2022-09-17T09:06:19.837Z,20.76
2022-09-17T09:07:19.838Z,20.55
2022-09-17T09:08:19.956Z,20.61
2022-09-17T09:09:19.832Z,20.69
2022-09-17T09:10:19.990Z,21.12
2022-09-17T09:11:19.841Z,20.95
2022-09-17T09:12:19.846Z,20.87
2022-09-17T09:13:19.835Z,20.85
2022-09-17T09:14:19.836Z,20.62
2022-09-17T09:15:19.842Z,20.57
2022-09-17T09:16:19.902Z,20.70
2022-09-17T09:17:19.845Z,20.92
2022-09-17T09:18:19.841Z,21.43
2022-09-17T09:19:19.843Z,21.61
2022-09-17T09:20:19.897Z,21.49
2022-09-17T09:21:19.845Z,21.37
2022-09-17T09:22:19.845Z,21.16
2022-09-17T09:23:19.844Z,21.09
2022-09-17T09:24:19.977Z,21.24
2022-09-17T09:25:19.846Z,21.07
2022-09-17T09:26:19.850Z,21.07
2022-09-17T09:27:19.852Z,20.97
2022-09-17T09:28:19.853Z,21.54
2022-09-17T09:29:19.852Z,22.20
2022-09-17T09:30:19.903Z,22.65
2022-09-17T09:31:19.911Z,23.87
2022-09-17T09:32:19.857Z,24.30
2022-09-17T09:33:19.960Z,24.10
2022-09-17T09:34:19.859Z,23.25
2022-09-17T09:35:19.865Z,22.85
2022-09-17T09:36:19.862Z,22.10
2022-09-17T09:37:19.860Z,21.64
2022-09-17T09:38:19.868Z,21.43
2022-09-17T09:39:19.867Z,21.29
2022-09-17T09:40:20.144Z,21.09
2022-09-17T09:41:19.873Z,20.76
2022-09-17T09:42:19.879Z,20.51
2022-09-17T09:43:19.873Z,20.32
2022-09-17T09:44:19.875Z,20.28
2022-09-17T09:45:19.883Z,21.35
2022-09-17T09:46:19.944Z,21.34
2022-09-17T09:47:19.881Z,21.27
2022-09-17T09:48:19.882Z,21.12
2022-09-17T09:49:19.887Z,21.07
2022-09-17T09:50:19.884Z,20.80
2022-09-17T09:51:19.885Z,20.42
2022-09-17T09:52:19.887Z,20.26
2022-09-17T09:53:19.890Z,20.26
2022-09-17T09:54:19.896Z,20.20
2022-09-17T09:55:23.363Z,19.99
2022-09-17T09:56:20.020Z,19.94
2022-09-17T09:57:19.897Z,20.08
2022-09-17T09:58:19.898Z,20.18
2022-09-17T09:59:19.902Z,20.36
2022-09-17T10:00:19.900Z,20.38
2022-09-17T10:01:19.923Z,20.28
2022-09-17T10:02:20.013Z,20.28
2022-09-17T10:03:19.898Z,20.41
2022-09-17T10:04:19.909Z,20.38
2022-09-17T10:05:19.908Z,20.20
2022-09-17T10:06:19.914Z,20.24
2022-09-17T10:07:19.908Z,20.16
2022-09-17T10:08:19.913Z,20.01
2022-09-17T10:09:19.916Z,20.11
2022-09-17T10:10:19.908Z,19.88
2022-09-17T10:11:19.913Z,19.88
2022-09-17T10:12:20.043Z,19.95
2022-09-17T10:13:19.912Z,19.86
2022-09-17T10:14:19.919Z,19.73
2022-09-17T10:15:19.915Z,19.73
2022-09-17T10:16:20.037Z,19.83
2022-09-17T10:17:19.915Z,19.86
2022-09-17T10:18:19.921Z,19.84
2022-09-17T10:19:19.920Z,19.69
2022-09-17T10:20:23.120Z,19.77
2022-09-17T10:21:19.929Z,19.88
2022-09-17T10:22:19.927Z,19.95
2022-09-17T10:23:19.925Z,19.96
2022-09-17T10:24:19.927Z,20.06
2022-09-17T10:25:19.922Z,20.26
2022-09-17T10:26:19.925Z,20.69
2022-09-17T10:27:19.932Z,20.73
2022-09-17T10:28:20.051Z,20.80
2022-09-17T10:29:19.925Z,20.52
2022-09-17T10:30:19.927Z,20.57
2022-09-17T10:31:20.021Z,20.58
2022-09-17T10:32:19.931Z,20.69
2022-09-17T10:33:19.933Z,20.85
2022-09-17T10:34:19.939Z,20.95
2022-09-17T10:35:19.943Z,21.21
2022-09-17T10:36:19.944Z,21.12
2022-09-17T10:37:19.940Z,21.22
2022-09-17T10:38:19.936Z,21.31
2022-09-17T10:39:19.957Z,21.27
2022-09-17T10:40:20.230Z,21.29
2022-09-17T10:41:19.945Z,21.43
2022-09-17T10:42:19.940Z,22.07
2022-09-17T10:43:19.943Z,23.31
2022-09-17T10:44:20.071Z,23.42
2022-09-17T10:45:19.965Z,23.42
2022-09-17T10:46:22.890Z,23.20
2022-09-17T10:47:19.947Z,23.01
2022-09-17T10:48:19.960Z,22.73
2022-09-17T10:49:19.951Z,22.62
2022-09-17T10:50:19.970Z,22.39
2022-09-17T10:51:19.957Z,22.33
2022-09-17T10:52:19.961Z,22.24
2022-09-17T10:53:19.953Z,21.99
2022-09-17T10:54:19.954Z,21.96
2022-09-17T10:55:19.974Z,21.50
2022-09-17T10:56:19.955Z,21.16
2022-09-17T10:57:19.960Z,20.74
2022-09-17T10:58:19.953Z,20.48
2022-09-17T10:59:19.960Z,20.14
2022-09-17T11:00:20.073Z,19.91
2022-09-17T11:01:20.041Z,19.83
2022-09-17T11:02:20.089Z,19.69
2022-09-17T11:03:19.962Z,19.63
2022-09-17T11:04:19.974Z,19.54
2022-09-17T11:05:19.961Z,19.40
2022-09-17T11:06:19.970Z,19.29
2022-09-17T11:07:19.982Z,19.58
2022-09-17T11:08:19.980Z,19.61
2022-09-17T11:09:19.973Z,19.37
2022-09-17T11:10:19.969Z,19.54
2022-09-17T11:11:19.969Z,19.66
2022-09-17T11:12:19.973Z,20.16
2022-09-17T11:13:19.970Z,20.47
2022-09-17T11:14:19.975Z,20.72
2022-09-17T11:15:19.970Z,20.87
2022-09-17T11:16:20.160Z,21.17
2022-09-17T11:17:19.973Z,21.47
2022-09-17T11:18:19.976Z,21.90
2022-09-17T11:19:19.975Z,22.03
2022-09-17T11:20:19.978Z,22.06
2022-09-17T11:21:19.977Z,22.07
2022-09-17T11:22:19.978Z,22.09
2022-09-17T11:23:19.984Z,22.15
2022-09-17T11:24:19.980Z,22.06
2022-09-17T11:25:19.979Z,22.05
2022-09-17T11:26:19.984Z,22.10
2022-09-17T11:27:19.979Z,22.12
2022-09-17T11:28:19.987Z,21.64
2022-09-17T11:29:19.989Z,21.22
2022-09-17T11:30:19.991Z,21.21
2022-09-17T11:31:24.062Z,21.13
2022-09-17T11:32:20.111Z,20.84
2022-09-17T11:33:19.993Z,20.74
2022-09-17T11:34:19.992Z,20.82
2022-09-17T11:35:19.990Z,21.19
2022-09-17T11:36:19.993Z,21.19
2022-09-17T11:37:19.987Z,20.99
2022-09-17T11:38:19.991Z,20.99
2022-09-17T11:39:19.995Z,20.74
2022-09-17T11:40:20.079Z,20.43
2022-09-17T11:41:20.001Z,20.35
2022-09-17T11:42:19.997Z,20.23
2022-09-17T11:43:19.998Z,20.31
2022-09-17T11:44:20.000Z,21.22
2022-09-17T11:45:20.000Z,22.18
2022-09-17T11:46:20.116Z,22.77
2022-09-17T11:47:20.004Z,23.32
2022-09-17T11:48:20.126Z,23.83
2022-09-17T11:49:19.999Z,24.32
2022-09-17T11:50:20.009Z,24.45
2022-09-17T11:51:20.007Z,24.32
2022-09-17T11:52:20.005Z,24.58
2022-09-17T11:53:20.010Z,25.09
2022-09-17T11:54:20.009Z,25.42
2022-09-17T11:55:20.018Z,24.85
2022-09-17T11:56:20.017Z,24.34
2022-09-17T11:57:20.020Z,23.98
2022-09-17T11:58:20.016Z,23.57
2022-09-17T11:59:20.013Z,23.12
2022-09-17T12:00:20.028Z,22.91
2022-09-17T12:01:20.019Z,22.28
2022-09-17T12:02:20.054Z,21.96
2022-09-17T12:03:20.092Z,21.92
2022-09-17T12:04:20.134Z,21.64
2022-09-17T12:05:20.029Z,21.59
2022-09-17T12:06:20.025Z,21.74
2022-09-17T12:07:20.021Z,21.91
2022-09-17T12:08:20.028Z,21.90
2022-09-17T12:09:20.023Z,21.98
2022-09-17T12:10:20.026Z,21.96
2022-09-17T12:11:20.025Z,21.99
2022-09-17T12:12:44.774Z,22.27
2022-09-17T12:13:20.029Z,22.35
2022-09-17T12:14:20.034Z,22.60
2022-09-17T12:15:20.033Z,22.72
2022-09-17T12:16:20.091Z,22.57
2022-09-17T12:17:20.035Z,22.58
2022-09-17T12:18:31.553Z,22.77
2022-09-17T12:19:20.034Z,22.72
2022-09-17T12:20:20.155Z,22.61
2022-09-17T12:21:20.038Z,22.58
2022-09-17T12:22:20.041Z,22.80
2022-09-17T12:23:20.045Z,22.90
2022-09-17T12:24:20.043Z,23.09
2022-09-17T12:25:20.045Z,23.15
2022-09-17T12:26:20.041Z,23.12
2022-09-17T12:27:20.043Z,23.20
2022-09-17T12:28:20.043Z,23.25
2022-09-17T12:29:20.123Z,23.17
2022-09-17T12:30:22.761Z,22.95
2022-09-17T12:31:20.127Z,23.04
2022-09-17T12:32:20.049Z,22.91
2022-09-17T12:33:20.049Z,22.77
2022-09-17T12:34:20.051Z,22.55
2022-09-17T12:35:20.057Z,22.36
2022-09-17T12:36:20.172Z,22.07
2022-09-17T12:37:20.055Z,21.94
2022-09-17T12:38:20.075Z,22.00
2022-09-17T12:39:20.141Z,21.94
2022-09-17T12:40:20.151Z,21.77
2022-09-17T12:41:20.059Z,21.37
2022-09-17T12:42:20.058Z,20.98
2022-09-17T12:43:20.060Z,20.99
2022-09-17T12:44:20.065Z,20.99
2022-09-17T12:45:20.064Z,20.98
2022-09-17T12:46:20.163Z,21.03
2022-09-17T12:47:20.065Z,21.17
2022-09-17T12:48:20.068Z,21.13
2022-09-17T12:49:20.121Z,21.46
2022-09-17T12:50:20.068Z,21.58
2022-09-17T12:51:20.069Z,21.74
2022-09-17T12:52:20.187Z,21.91